CFG3HM EDDF-LEPA
Flight info
| Callsign | CFG3HM |
|---|---|
| Flight time | N/A |
| Altitude | 35000 |
| Route | ANEKI2L/18 ANEKI Y163 HERBI Y164 MOPAN DCT LUTIX DCT BENOT DCT NEMOS DCT GEVEA DCT INCUS DCT BALSI DCT RETNO DCT TUPOX DCT MTG DCT DIVKO DCT VATIR DCT PIVUS DCT BODEQ DCT VERSO DCT LUNIK |
| Aircraft | A321/M-SDE2E3FGHIJ1RWXYZ/LB1 |
Departure
| Time | N/A |
|---|---|
| Airport | Frankfurt Main Airport (EDDF) |
Arrival
| Time | 2026-04-30 20:26 |
|---|---|
| Airport | Palma de Mallorca Airport (LEPA) |
| Time | Latitude | Longitude | Altitude | Speed | Heading |
|---|---|---|---|---|---|
| 2026-04-30 19:42 | 43.01775 | 4.74781 | 35143 ft | 438 kts | 214° |
| 2026-04-30 19:42 | 42.96427 | 4.70724 | 35142 ft | 439 kts | 214° |
| 2026-04-30 19:43 | 42.91117 | 4.66701 | 35143 ft | 439 kts | 214° |
| 2026-04-30 19:44 | 42.83441 | 4.60907 | 35135 ft | 437 kts | 214° |
| 2026-04-30 19:44 | 42.78124 | 4.56898 | 35136 ft | 436 kts | 214° |
| 2026-04-30 19:45 | 42.72819 | 4.52909 | 35134 ft | 435 kts | 214° |
| 2026-04-30 19:45 | 42.67550 | 4.48954 | 35135 ft | 435 kts | 214° |
| 2026-04-30 19:46 | 42.62262 | 4.44992 | 35128 ft | 435 kts | 214° |
| 2026-04-30 19:46 | 42.56986 | 4.41048 | 35129 ft | 435 kts | 215° |
| 2026-04-30 19:47 | 42.51702 | 4.37104 | 35129 ft | 433 kts | 214° |
| 2026-04-30 19:47 | 42.46439 | 4.33185 | 35124 ft | 433 kts | 214° |
| 2026-04-30 19:48 | 42.41154 | 4.29256 | 35121 ft | 432 kts | 214° |
| 2026-04-30 19:48 | 42.35888 | 4.25349 | 35120 ft | 432 kts | 214° |
| 2026-04-30 19:49 | 42.30612 | 4.21442 | 35115 ft | 433 kts | 214° |
| 2026-04-30 19:49 | 42.25475 | 4.17646 | 35250 ft | 433 kts | 214° |
| 2026-04-30 19:49 | 42.22833 | 4.15696 | 35159 ft | 432 kts | 214° |
| 2026-04-30 19:50 | 42.17596 | 4.11836 | 35120 ft | 430 kts | 214° |
| 2026-04-30 19:50 | 42.12358 | 4.07982 | 35115 ft | 429 kts | 214° |
| 2026-04-30 19:51 | 42.07128 | 4.04145 | 35024 ft | 430 kts | 214° |
| 2026-04-30 19:51 | 42.04529 | 4.02240 | 35144 ft | 430 kts | 214° |
| 2026-04-30 19:51 | 42.01911 | 4.00324 | 35122 ft | 429 kts | 214° |
| 2026-04-30 19:52 | 41.96564 | 3.96661 | 35110 ft | 433 kts | 209° |
| 2026-04-30 19:52 | 41.90929 | 3.93754 | 35108 ft | 437 kts | 203° |
| 2026-04-30 19:53 | 41.85057 | 3.91696 | 35109 ft | 440 kts | 197° |
| 2026-04-30 19:53 | 41.78994 | 3.90273 | 35106 ft | 440 kts | 195° |
| 2026-04-30 19:54 | 41.72993 | 3.88890 | 35104 ft | 440 kts | 195° |
| 2026-04-30 19:54 | 41.66942 | 3.87495 | 35103 ft | 440 kts | 195° |
| 2026-04-30 19:55 | 41.60929 | 3.86111 | 34904 ft | 441 kts | 195° |
| 2026-04-30 19:55 | 41.57925 | 3.85422 | 34615 ft | 439 kts | 195° |
| 2026-04-30 19:55 | 41.54934 | 3.84736 | 34326 ft | 436 kts | 195° |
| 2026-04-30 19:56 | 41.51971 | 3.84057 | 34039 ft | 434 kts | 195° |
| 2026-04-30 19:56 | 41.48986 | 3.83372 | 33777 ft | 432 kts | 195° |
| 2026-04-30 19:56 | 41.46016 | 3.82690 | 33516 ft | 432 kts | 195° |
| 2026-04-30 19:56 | 41.43054 | 3.82011 | 33256 ft | 433 kts | 195° |
| 2026-04-30 19:57 | 41.40118 | 3.81340 | 33001 ft | 433 kts | 195° |
| 2026-04-30 19:57 | 41.37140 | 3.80661 | 32744 ft | 434 kts | 195° |
| 2026-04-30 19:57 | 41.34146 | 3.79977 | 32485 ft | 434 kts | 194° |
| 2026-04-30 19:57 | 41.31174 | 3.79300 | 32229 ft | 435 kts | 194° |
| 2026-04-30 19:58 | 41.28197 | 3.78623 | 31973 ft | 435 kts | 194° |
| 2026-04-30 19:58 | 41.25207 | 3.77942 | 31715 ft | 436 kts | 194° |
| 2026-04-30 19:58 | 41.22254 | 3.77272 | 31462 ft | 437 kts | 194° |
| 2026-04-30 19:58 | 41.19250 | 3.76568 | 31204 ft | 436 kts | 196° |
| 2026-04-30 19:59 | 41.16293 | 3.75683 | 30947 ft | 435 kts | 199° |
| 2026-04-30 19:59 | 41.13420 | 3.74591 | 30692 ft | 433 kts | 202° |
| 2026-04-30 19:59 | 41.07780 | 3.71826 | 30181 ft | 432 kts | 206° |
| 2026-04-30 20:00 | 41.04994 | 3.70389 | 29925 ft | 433 kts | 206° |
| 2026-04-30 20:00 | 41.02181 | 3.68939 | 29668 ft | 434 kts | 206° |
| 2026-04-30 20:00 | 40.99357 | 3.67485 | 29409 ft | 435 kts | 206° |
| 2026-04-30 20:00 | 40.96553 | 3.66042 | 29150 ft | 436 kts | 205° |
| 2026-04-30 20:01 | 40.90878 | 3.63128 | 28632 ft | 437 kts | 205° |
| 2026-04-30 20:01 | 40.88032 | 3.61670 | 28376 ft | 436 kts | 205° |
| 2026-04-30 20:01 | 40.85229 | 3.60234 | 28113 ft | 435 kts | 205° |
| 2026-04-30 20:02 | 40.79632 | 3.57373 | 27453 ft | 430 kts | 205° |
| 2026-04-30 20:02 | 40.76848 | 3.55951 | 27037 ft | 428 kts | 205° |
| 2026-04-30 20:03 | 40.71350 | 3.53149 | 26068 ft | 421 kts | 205° |
| 2026-04-30 20:03 | 40.68621 | 3.51759 | 25561 ft | 418 kts | 205° |
| 2026-04-30 20:03 | 40.65942 | 3.50395 | 25059 ft | 414 kts | 205° |
| 2026-04-30 20:03 | 40.63277 | 3.49040 | 24557 ft | 410 kts | 205° |
| 2026-04-30 20:04 | 40.60635 | 3.47697 | 24056 ft | 407 kts | 204° |
| 2026-04-30 20:04 | 40.58001 | 3.46360 | 23552 ft | 403 kts | 204° |
| 2026-04-30 20:04 | 40.55384 | 3.45032 | 23050 ft | 400 kts | 204° |
| 2026-04-30 20:05 | 40.50259 | 3.42436 | 22066 ft | 393 kts | 204° |
| 2026-04-30 20:05 | 40.47727 | 3.41155 | 21576 ft | 390 kts | 204° |
| 2026-04-30 20:05 | 40.42475 | 3.39491 | 20593 ft | 390 kts | 188° |
| 2026-04-30 20:06 | 40.39774 | 3.39433 | 20107 ft | 389 kts | 181° |
| 2026-04-30 20:06 | 40.37093 | 3.39576 | 19625 ft | 387 kts | 180° |
| 2026-04-30 20:06 | 40.34419 | 3.39747 | 19140 ft | 385 kts | 180° |
| 2026-04-30 20:06 | 40.31747 | 3.39918 | 18653 ft | 383 kts | 180° |
| 2026-04-30 20:07 | 40.29101 | 3.40080 | 18166 ft | 381 kts | 180° |
| 2026-04-30 20:07 | 40.26473 | 3.40235 | 17685 ft | 379 kts | 180° |
| 2026-04-30 20:07 | 40.21220 | 3.40539 | 16717 ft | 375 kts | 180° |
| 2026-04-30 20:08 | 40.18646 | 3.40686 | 16238 ft | 374 kts | 180° |
| 2026-04-30 20:08 | 40.16056 | 3.40833 | 15755 ft | 372 kts | 180° |
| 2026-04-30 20:08 | 40.13490 | 3.40979 | 15401 ft | 365 kts | 180° |
| 2026-04-30 20:08 | 40.10974 | 3.41125 | 15161 ft | 356 kts | 180° |
| 2026-04-30 20:09 | 40.08544 | 3.41262 | 14964 ft | 345 kts | 180° |
| 2026-04-30 20:09 | 40.06189 | 3.41397 | 14783 ft | 335 kts | 180° |
| 2026-04-30 20:09 | 40.01632 | 3.41465 | 14108 ft | 322 kts | 193° |
| 2026-04-30 20:10 | 39.97321 | 3.39541 | 12476 ft | 340 kts | 204° |
| 2026-04-30 20:10 | 39.95111 | 3.38442 | 11712 ft | 346 kts | 203° |
| 2026-04-30 20:10 | 39.92842 | 3.37342 | 11152 ft | 345 kts | 202° |
| 2026-04-30 20:11 | 39.88399 | 3.35251 | 10307 ft | 326 kts | 200° |
| 2026-04-30 20:11 | 39.86317 | 3.34355 | 9949 ft | 308 kts | 200° |
| 2026-04-30 20:11 | 39.84325 | 3.33503 | 9609 ft | 292 kts | 200° |
| 2026-04-30 20:12 | 39.80568 | 3.31878 | 8404 ft | 283 kts | 199° |
| 2026-04-30 20:12 | 39.78713 | 3.31071 | 7738 ft | 281 kts | 199° |
| 2026-04-30 20:12 | 39.76876 | 3.30271 | 7221 ft | 279 kts | 199° |
| 2026-04-30 20:13 | 39.75035 | 3.29471 | 6751 ft | 279 kts | 198° |
| 2026-04-30 20:13 | 39.73193 | 3.28671 | 6289 ft | 278 kts | 198° |
| 2026-04-30 20:13 | 39.71370 | 3.27880 | 6026 ft | 277 kts | 198° |
| 2026-04-30 20:13 | 39.69561 | 3.27098 | 5782 ft | 276 kts | 198° |
| 2026-04-30 20:14 | 39.67732 | 3.26306 | 5536 ft | 276 kts | 198° |
| 2026-04-30 20:14 | 39.65902 | 3.25513 | 5288 ft | 275 kts | 198° |
| 2026-04-30 20:14 | 39.64101 | 3.24729 | 5043 ft | 274 kts | 199° |
| 2026-04-30 20:14 | 39.62441 | 3.23555 | 4781 ft | 273 kts | 220° |
| 2026-04-30 20:15 | 39.61263 | 3.21626 | 4536 ft | 273 kts | 241° |
| 2026-04-30 20:15 | 39.60411 | 3.19434 | 4292 ft | 273 kts | 243° |
| 2026-04-30 20:15 | 39.59588 | 3.17221 | 4051 ft | 272 kts | 243° |
| 2026-04-30 20:15 | 39.58769 | 3.15035 | 3977 ft | 272 kts | 243° |
| 2026-04-30 20:16 | 39.57932 | 3.12832 | 3975 ft | 273 kts | 243° |
| 2026-04-30 20:16 | 39.57090 | 3.10636 | 3973 ft | 273 kts | 243° |
| 2026-04-30 20:16 | 39.56240 | 3.08435 | 3974 ft | 273 kts | 242° |
| 2026-04-30 20:16 | 39.55391 | 3.06240 | 3972 ft | 273 kts | 242° |
| 2026-04-30 20:17 | 39.54532 | 3.04027 | 3972 ft | 273 kts | 242° |
| 2026-04-30 20:17 | 39.53674 | 3.01821 | 3976 ft | 273 kts | 242° |
| 2026-04-30 20:17 | 39.52828 | 2.99649 | 3972 ft | 273 kts | 243° |
| 2026-04-30 20:17 | 39.51969 | 2.97446 | 3981 ft | 273 kts | 243° |
| 2026-04-30 20:18 | 39.51115 | 2.95253 | 3973 ft | 273 kts | 243° |
| 2026-04-30 20:18 | 39.50266 | 2.93078 | 3972 ft | 272 kts | 243° |
| 2026-04-30 20:18 | 39.49404 | 2.90871 | 3976 ft | 273 kts | 243° |
| 2026-04-30 20:18 | 39.48556 | 2.88699 | 3975 ft | 272 kts | 243° |
| 2026-04-30 20:19 | 39.47695 | 2.86497 | 3975 ft | 273 kts | 243° |
| 2026-04-30 20:19 | 39.47130 | 2.85053 | 3976 ft | 273 kts | 243° |
| 2026-04-30 20:19 | 39.45990 | 2.82133 | 3975 ft | 273 kts | 243° |
| 2026-04-30 20:19 | 39.45134 | 2.79944 | 3975 ft | 273 kts | 243° |
| 2026-04-30 20:20 | 39.44276 | 2.77764 | 3975 ft | 273 kts | 243° |
| 2026-04-30 20:20 | 39.43568 | 2.75484 | 3972 ft | 273 kts | 254° |
| 2026-04-30 20:20 | 39.43206 | 2.73058 | 3975 ft | 273 kts | 262° |
| 2026-04-30 20:20 | 39.42983 | 2.70648 | 3975 ft | 273 kts | 264° |
| 2026-04-30 20:21 | 39.42773 | 2.68180 | 3899 ft | 274 kts | 264° |
| 2026-04-30 20:21 | 39.42560 | 2.65763 | 3537 ft | 274 kts | 263° |
| 2026-04-30 20:21 | 39.42338 | 2.63337 | 3273 ft | 269 kts | 263° |
| 2026-04-30 20:21 | 39.42115 | 2.60949 | 3090 ft | 261 kts | 263° |
| 2026-04-30 20:22 | 39.41903 | 2.58675 | 2921 ft | 254 kts | 265° |
| 2026-04-30 20:22 | 39.42099 | 2.56469 | 2714 ft | 245 kts | 298° |
| 2026-04-30 20:22 | 39.43215 | 2.54939 | 2523 ft | 232 kts | 338° |
| 2026-04-30 20:22 | 39.44752 | 2.54698 | 2349 ft | 220 kts | 16° |
| 2026-04-30 20:23 | 39.46151 | 2.55381 | 2281 ft | 209 kts | 30° |
| 2026-04-30 20:23 | 39.47354 | 2.56381 | 2275 ft | 207 kts | 43° |
| 2026-04-30 20:23 | 39.48325 | 2.57744 | 2266 ft | 206 kts | 55° |
| 2026-04-30 20:23 | 39.49130 | 2.59243 | 2126 ft | 196 kts | 58° |
| 2026-04-30 20:24 | 39.49819 | 2.60672 | 1874 ft | 177 kts | 60° |
| 2026-04-30 20:24 | 39.50433 | 2.61992 | 1655 ft | 167 kts | 61° |
| 2026-04-30 20:24 | 39.51012 | 2.63230 | 1408 ft | 154 kts | 60° |
| 2026-04-30 20:24 | 39.51550 | 2.64370 | 1193 ft | 147 kts | 61° |
| 2026-04-30 20:25 | 39.52559 | 2.66510 | 860 ft | 146 kts | 59° |
| 2026-04-30 20:25 | 39.53107 | 2.67669 | 672 ft | 145 kts | 59° |
| 2026-04-30 20:26 | 39.54165 | 2.69899 | 300 ft | 144 kts | 59° |
| 2026-04-30 20:26 | 39.55179 | 2.72049 | 42 ft | 129 kts | 59° |
| 2026-04-30 20:26 | 39.55447 | 2.72628 | 42 ft | 45 kts | 66° |
| 2026-04-30 20:27 | 39.55497 | 2.73079 | 42 ft | 19 kts | 89° |
| 2026-04-30 20:27 | 39.55587 | 2.73361 | 42 ft | 13 kts | 58° |
| 2026-04-30 20:28 | 39.55598 | 2.73512 | 42 ft | 10 kts | 144° |
| 2026-04-30 20:28 | 39.55458 | 2.73624 | 42 ft | 14 kts | 149° |
| 2026-04-30 20:29 | 39.55267 | 2.73774 | 42 ft | 18 kts | 149° |
| 2026-04-30 20:30 | 39.55130 | 2.73591 | 41 ft | 15 kts | 239° |
| 2026-04-30 20:30 | 39.55053 | 2.73533 | 41 ft | 0 kts | 166° |